D/T METAR WX W/DIR W/SPE G/SPE TEMP DEWP
23/05/19 13:50 EGPA 231250Z 29023G33KT 9000 -RADZ SCT006 BKN009 BKN014 09/08 Q1005 -RA -DZ WNW (290°) 26.5mph 38.0mph 9°C 8°C
23/05/19 13:20 EGPA 231220Z 29022G32KT 9999 7000N -RADZ FEW007 SCT012 BKN016 10/08 Q1005 -RA DZ WNW (290°) 25.3mph 36.8mph 10°C 8°C
23/05/19 12:50 EGPA 231150Z 29024KT 9999 -RADZ FEW006 SCT012 BKN020 09/07 Q1005 -RA -DZ WNW (290°) 27.6mph 9°C 7°C
23/05/19 12:20 EGPA 231120Z 29020KT 9999 -RA FEW005 SCT009 BKN015 09/07 Q1006 -RA WNW (290°) 23.0mph 9°C 7°C
23/05/19 11:50 EGPA 231050Z 29020KT 9999 -RA FEW005 SCT008 BKN015 08/07 Q1006 -RA WNW (290°) 23.0mph 8°C 7°C
23/05/19 11:20 EGPA 231020Z 29019KT 8000 -RA SCT007 BKN010 08/07 Q1006 -RA WNW (290°) 21.9mph 8°C 7°C
23/05/19 10:50 EGPA 230950Z 29020KT 9999 -RA SCT007 BKN010 08/07 Q1006 -RA WNW (290°) 23.0mph 8°C 7°C
23/05/19 10:20 EGPA 230920Z 29020KT 9999 VCSH FEW008 SCT010 BKN035 09/07 Q1006 VCSH WNW (290°) 23.0mph 9°C 7°C
23/05/19 09:50 EGPA 230850Z 29021KT 9999 VCSH FEW008 SCT010 BKN035 09/07 Q1006 VCSH WNW (290°) 24.2mph 9°C 7°C
23/05/19 09:20 EGPA 230820Z 29020KT 9999 FEW009 BKN010 09/07 Q1006 WNW (290°) 23.0mph 9°C 7°C
23/05/19 08:50 EGPA 230750Z 29018KT 9999 FEW007 BKN011 09/07 Q1006 WNW (290°) 20.7mph 9°C 7°C
23/05/19 08:20 EGPA 230720Z 30019G29KT 9999 SCT007 BKN011 08/07 Q1007 WNW (300°) 21.9mph 33.4mph 8°C 7°C
23/05/19 07:50 EGPA 230650Z 30017KT 9000 -RA SCT006 BKN011 08/07 Q1007 -RA WNW (300°) 19.6mph 8°C 7°C
23/05/19 07:20 EGPA 230620Z 30016KT 9999 -RA SCT006 BKN010 08/07 Q1007 -RA WNW (300°) 18.4mph 8°C 7°C
23/05/19 06:50 EGPA 230550Z 30016KT 8000 -RADZ FEW003 BKN005 BKN016 08/07 Q1007 REDZ -RA -DZ WNW (300°) 18.4mph 8°C 7°C
23/05/19 06:20 EGPA 230520Z AUTO 30013KT 2000 DZ BKN004/// OVC031/// 08/07 Q1007 RERA DZ WNW (300°) 15.0mph 8°C 7°C
23/05/19 05:50 EGPA 230450Z AUTO 30015KT 2500 DZ BKN004/// BKN009/// OVC031/// 08/07 Q1007 DZ WNW (300°) 17.3mph 8°C 7°C
23/05/19 05:20 EGPA 230420Z AUTO 30015KT 9999 SCT006/// BKN021/// BKN025/// 08/07 Q1007 REDZ WNW (300°) 17.3mph 8°C 7°C
23/05/19 04:50 EGPA 230350Z AUTO 31014KT 4700 -RA SCT005/// BKN010/// OVC015/// 08/07 Q1008 -RA NW (310°) 16.1mph 8°C 7°C
23/05/19 04:20 EGPA 230320Z AUTO 31015KT 5000 -DZ SCT005/// BKN010/// BKN015/// 08/07 Q1007 -DZ NW (310°) 17.3mph 8°C 7°C
23/05/19 03:50 EGPA 230250Z AUTO 31015KT 9999 SCT010/// SCT014/// BKN019/// 08/07 Q1007 NW (310°) 17.3mph 8°C 7°C
23/05/19 03:20 EGPA 230220Z AUTO 31015KT 9999 BKN008/// BKN019/// OVC028/// 08/07 Q1008 NW (310°) 17.3mph 8°C 7°C
23/05/19 02:50 EGPA 230150Z AUTO 31016KT 9999 SCT011/// BKN016/// OVC032/// 08/07 Q1008 NW (310°) 18.4mph 8°C 7°C
23/05/19 02:20 EGPA 230120Z AUTO 31016KT 9999 BKN009/// BKN033/// 08/07 Q1008 NW (310°) 18.4mph 8°C 7°C
23/05/19 01:50 EGPA 230050Z AUTO 31015KT 9999 SCT010/// BKN015/// OVC041/// 08/07 Q1008 NW (310°) 17.3mph 8°C 7°C
23/05/19 01:20 EGPA 230020Z AUTO 31017KT 9999 -RA BKN008/// BKN016/// 08/07 Q1008 -RA NW (310°) 19.6mph 8°C 7°C
23/05/19 00:50 EGPA 222350Z AUTO 31016KT 9999 -RA BKN008/// BKN015/// 08/07 Q1008 RERA -RA NW (310°) 18.4mph 8°C 7°C
23/05/19 00:20 EGPA 222320Z AUTO 30015KT 5000 -RA SCT007/// BKN012/// BKN039/// 08/07 Q1009 RERA -RA WNW (300°) 17.3mph 8°C 7°C
22/05/19 23:50 EGPA 222250Z AUTO 31016KT 6000 -RA SCT007/// BKN012/// BKN021/// 08/07 Q1009 RERA -RA NW (310°) 18.4mph 8°C 7°C
22/05/19 23:20 EGPA 222220Z AUTO 31015KT 9999 -RA BKN014/// BKN022/// OVC044/// 08/07 Q1009 -RA NW (310°) 17.3mph 8°C 7°C
22/05/19 22:50 EGPA 222150Z AUTO 31014KT 9999 -RA SCT007/// BKN012/// OVC038/// 08/07 Q1009 -RA NW (310°) 16.1mph 8°C 7°C
22/05/19 22:20 EGPA 222120Z AUTO 32014KT 9999 -RA BKN007/// BKN015/// OVC041/// 08/07 Q1010 -RA NW (320°) 16.1mph 8°C 7°C
22/05/19 21:50 EGPA 222050Z AUTO 31012KT 5000 -RA BKN007/// OVC036/// 08/07 Q1010 RERA -RA NW (310°) 13.8mph 8°C 7°C
22/05/19 21:20 EGPA 222020Z AUTO 32012KT 4700 RA SCT009/// BKN013/// BKN018/// 08/07 Q1010 RA NW (320°) 13.8mph 8°C 7°C
22/05/19 20:50 EGPA 221950Z AUTO 32012KT 9999 -RA SCT009/// BKN013/// OVC045/// 08/07 Q1010 -RA NW (320°) 13.8mph 8°C 7°C
22/05/19 20:20 EGPA 221920Z AUTO 32012KT 6000 -RA SCT007/// BKN010/// 08/08 Q1010 RESHGR RERA -RA RA NW (320°) 13.8mph 8°C 8°C
22/05/19 19:50 EGPA 221850Z 32013KT 6000 RADZ BKN005 OVC011 08/08 Q1010 RA DZ NW (320°) 15.0mph 8°C 8°C
22/05/19 19:20 EGPA 221820Z 32014KT 6000 RADZ BKN005 OVC011 08/08 Q1010 RA DZ NW (320°) 16.1mph 8°C 8°C
22/05/19 18:50 EGPA 221750Z 32017KT 8000 -RADZ BKN005 OVC011 09/08 Q1010 RERA REDZ -RA -DZ NW (320°) 19.6mph 9°C 8°C
22/05/19 18:20 EGPA 221720Z 33015KT 6000 RADZ BKN004 OVC010 08/08 Q1010 RA DZ NNW (330°) 17.3mph 8°C 8°C
22/05/19 17:50 EGPA 221650Z 33015KT 3000 RADZ BR BKN003 OVC010 OVC018 09/08 Q1010 RA DZ BR NNW (330°) 17.3mph 9°C 8°C
22/05/19 17:20 EGPA 221620Z 33016KT 3000 RADZ BR BKN004 BKN010 OVC019 09/08 Q1011 RA DZ BR NNW (330°) 18.4mph 9°C 8°C
22/05/19 16:50 EGPA 221550Z 33016KT 3000 RADZ BR BKN004 BKN010 OVC019 09/08 Q1011 RA DZ BR NNW (330°) 18.4mph 9°C 8°C
22/05/19 15:50 EGPA 221450Z 33017KT 4500 RADZ BR BKN004 BKN010 OVC032 09/09 Q1011 RA DZ BR NNW (330°) 19.6mph 9°C 9°C
22/05/19 15:20 EGPA 221420Z 33015KT 4100 -RADZ BR FEW003 BKN004 BKN010 09/09 Q1011 -RA -DZ BR NNW (330°) 17.3mph 9°C 9°C
22/05/19 14:50 EGPA 221350Z 33015KT 5000 -RADZ BR FEW003 BKN004 BKN010 10/09 Q1011 -RA -DZ BR NNW (330°) 17.3mph 10°C 9°C
22/05/19 14:20 EGPA 221320Z 33015KT 4500 -RADZ BR FEW003 BKN004 BKN010 10/09 Q1011 -RA -DZ BR NNW (330°) 17.3mph 10°C 9°C
22/05/19 13:50 EGPA 221250Z 33015KT 3500 -RADZ BR FEW003 BKN004 BKN010 10/09 Q1011 -RA -DZ BR NNW (330°) 17.3mph 10°C 9°C